Gostivar, Macedonia
Current Conditions -  °F | °C
As of 6:30 PM on Friday 21 Nov 2014 (Local Time) from LWSK Reporting Station
Broken Clouds Broken Clouds  
Wind Chill: 44°   Ceiling: 6000
Heat Index: 48°   Visibility: 6mi
Dew Point: 37°   Wind: 10mph
Humidity: 66%   Direction: 20°NNE
Pressure: 30.18"   Gusts: NA
Location:  41.8°N, 20.92°E
Report Text: LWSK 211630Z 02009KT 9999 BKN060 09/03 Q1022 NOSIG
Loading
Personal Weather Stations






























Interactive Weather Map New forecast layout! Learn more

10-Day Weather Forecast

Advertisements
Track Severe Weather on mobile